الصفحة الرئيسية
METAR-TAF:

METAR-TAF

مطار :

مطار الخرطوم الدولي

الخرطوم, السودان

دائرة عرض: 15-36N, خط طول: 032-33E, ارتفاع: 382 متر

مراقبة الطقس الحالي

تاريخ ووقت الإصدار 14 دقيقة قبل الساعة 17:30UTC
ريح 10 عقدة من الشمال/الشمال الغربي
درجة الحرارة 22°درجة مئوية
الرطوبة 15%
ضغط 1019 hPa
الرؤية 10 كم أو أكثر
الغيوم لا تقل 1500 م ولا وجود لمزنة ركامية السحاب الأسود

METAR: HSSS 161730Z 34010KT CAVOK 22/M06 Q1019 NOSIG

زمن: 20:44 (17:44 UTC)

توقعات

تاريخ ووقت الإصدار 44 دقيقة قبل الساعة 17:00UTC
التوقعات صالحة من16 الساعة 18 UTC إلى 17 الساعة 24 UTC
ريح 10 عقدة من الشمال تتزايد حتى 20 عقدة
الرؤية 10 كم أو أكثر
الغيوم لا تقل 1500 م ولا وجود لمزنة ركامية السحاب الأسود

TAF: HSSS 161700Z 1618/1724 36010G20KT CAVOK

أرصاد الطقس والتوقعات من أكثر من 4000 مطار (تقارير الطقس للمطار METAR والتنبؤ بالطقس بالمطارTAF).

المحطات المتاحة هي النقط الصفراء والحمراء على الخريطة.

حرك المؤشر فوق النقطة لمعرفة اسم المحطة.

ثم انقر لمعرفة أرصاد وتوقعات الطقس.

لتغيير الخارطة: اضغط على الأزرار الخضراء مع رمز الصليب الأسود للتكبير. على الزر الأخضر مع شرطة للتصغير، أو على الأسهم الخضراء للخرائط المجاورة.


METAR-TAF: